»·PEaware :: SWA1942 KPHX-KSNA

SWA1942 :: KPHX-KSNA

FLIGHT INFORMATION

Flight Status: Arrived
Operator:
Southwest Airlines
More flights by this operator :: More flights under this callsign
Pilot: Cole F. (14495)
Aircraft: BOEING 737-800
(B738)
More flights by this aircraft type
Origin: KPHX Phoenix Sky Harbor Intl
United States
Destination: KSNA John Wayne-Orange Co
United States
More flights between these airports :: More routes between these airports
Route: +IZZZO6 HRRBR EMLLD DSNEE1
File this flight plan on PilotEdge
Remarks:
Altitude:
(Current/Filed)
36,000ft
Speed:
(Current/Filed)
450kts
Departed: 14-Nov-17 11:43 AM
Arrived: 14-Nov-17 12:49 PM
Distance/Time
Traveled:
293nm/1:06
Distance/Time
To Go:
Arrived

Flight Plot

Page will automatically refresh every two minutes.

Flight plan parsing failed; only flown route is shown


Map Options




Map Legend


Flown Route
Filed Route
Departure Airport
Arrival Airport
Navaid (VOR, NDB)
Fix

Horizontal Profiles

Position Reports

Time Latitude Longitude Heading Altitude Ground
Speed
14-Nov-17 11:27 33.434296 -111.999898 91 1116ft 0kts
14-Nov-17 11:28 33.434296 -111.999898 91 1116ft 0kts
14-Nov-17 11:29 33.434296 -111.999898 91 1116ft 0kts
14-Nov-17 11:30 33.434296 -111.999898 91 1116ft 0kts
14-Nov-17 11:31 33.434296 -111.999898 91 1116ft 0kts
14-Nov-17 11:32 33.434296 -111.999898 91 1116ft 0kts
14-Nov-17 11:33 33.434296 -111.999898 91 1116ft 0kts
14-Nov-17 11:34 33.434296 -111.999898 91 1116ft 0kts
14-Nov-17 11:35 33.434296 -111.999898 91 1116ft 0kts
14-Nov-17 11:36 33.434296 -111.999898 91 1116ft 0kts
14-Nov-17 11:37 33.434296 -111.999899 91 1116ft 0kts
14-Nov-17 11:38 33.434310 -112.000347 116 1116ft 0kts
14-Nov-17 11:39 33.434409 -112.000444 148 1116ft 0kts
14-Nov-17 11:40 33.434409 -112.000444 148 1116ft 0kts
14-Nov-17 11:41 33.433489 -112.000381 179 1116ft 4kts
14-Nov-17 11:42 33.432837 -112.002976 269 1116ft 11kts
14-Nov-17 11:43 33.432144 -112.006711 270 1116ft 16kts
14-Nov-17 11:44 33.432148 -112.012735 270 1116ft 16kts
14-Nov-17 11:45 33.432160 -112.018545 270 1116ft 18kts
14-Nov-17 11:46 33.432162 -112.024178 269 1116ft 12kts
14-Nov-17 11:47 33.431358 -112.026977 179 1116ft 9kts
14-Nov-17 11:48 33.431063 -112.005712 90 1199ft 169kts
14-Nov-17 11:49 33.431058 -111.947151 88 2826ft 197kts
14-Nov-17 11:50 33.428092 -111.872931 122 4529ft 235kts
14-Nov-17 11:51 33.370087 -111.853253 210 7062ft 247kts
14-Nov-17 11:52 33.352436 -111.926976 283 9383ft 256kts
14-Nov-17 11:53 33.368600 -112.019566 284 10629ft 312kts
14-Nov-17 11:54 33.383349 -112.122897 280 13249ft 312kts
14-Nov-17 11:55 33.397680 -112.226294 279 15478ft 323kts
14-Nov-17 11:56 33.412629 -112.333765 279 18520ft 333kts
14-Nov-17 11:57 33.428180 -112.444835 278 21222ft 345kts
14-Nov-17 11:58 33.444381 -112.559496 276 23861ft 351kts
14-Nov-17 11:59 33.451401 -112.675047 267 26220ft 352kts
14-Nov-17 12:00 33.452696 -112.792856 268 28397ft 357kts
14-Nov-17 12:01 33.473150 -112.911003 277 30254ft 366kts
14-Nov-17 12:02 33.495247 -113.031026 277 31812ft 374kts
14-Nov-17 12:03 33.517491 -113.151790 277 33689ft 367kts
14-Nov-17 12:04 33.539332 -113.269921 277 35300ft 361kts
14-Nov-17 12:05 33.561017 -113.386726 277 36074ft 366kts
14-Nov-17 12:06 33.583720 -113.508282 277 36059ft 379kts
14-Nov-17 12:07 33.606607 -113.631449 277 36037ft 378kts
14-Nov-17 12:08 33.629204 -113.753848 277 36054ft 378kts
14-Nov-17 12:09 33.653809 -113.876676 285 36035ft 385kts
14-Nov-17 12:10 33.699170 -113.993389 287 36050ft 387kts
14-Nov-17 12:11 33.744286 -114.110459 287 36048ft 387kts
14-Nov-17 12:12 33.768265 -114.232468 273 36045ft 376kts
14-Nov-17 12:13 33.782025 -114.356675 273 36043ft 375kts
14-Nov-17 12:14 33.796079 -114.480611 273 36041ft 375kts
14-Nov-17 12:15 33.810345 -114.605201 273 36039ft 375kts
14-Nov-17 12:16 33.824497 -114.728426 273 36055ft 375kts
14-Nov-17 12:17 33.838945 -114.852648 273 36053ft 375kts
14-Nov-17 12:18 33.850806 -114.956023 273 36051ft 375kts
14-Nov-17 12:19 33.864135 -115.080271 273 35996ft 375kts
14-Nov-17 12:20 33.879769 -115.225616 273 35992ft 375kts
14-Nov-17 12:21 33.891013 -115.329207 273 35990ft 376kts
14-Nov-17 12:22 33.904569 -115.452870 273 35969ft 363kts
14-Nov-17 12:23 33.917929 -115.573957 273 34734ft 367kts
14-Nov-17 12:24 33.930978 -115.716512 270 33021ft 372kts
14-Nov-17 12:25 33.937918 -115.819251 270 31639ft 362kts
14-Nov-17 12:26 33.945772 -115.932710 270 30126ft 321kts
14-Nov-17 12:27 33.952849 -116.033882 270 28781ft 288kts
14-Nov-17 12:28 33.959353 -116.125855 270 27554ft 263kts
14-Nov-17 12:29 33.963445 -116.217618 261 26474ft 316kts
14-Nov-17 12:30 33.948686 -116.333698 260 24375ft 349kts
14-Nov-17 12:31 33.934477 -116.447980 260 23180ft 347kts
14-Nov-17 12:32 33.920301 -116.562169 260 21645ft 342kts
14-Nov-17 12:33 33.905751 -116.674313 260 20152ft 338kts
14-Nov-17 12:34 33.891821 -116.785361 262 18537ft 338kts
14-Nov-17 12:35 33.879780 -116.896268 262 16044ft 331kts
14-Nov-17 12:36 33.868127 -117.002865 263 13536ft 319kts
14-Nov-17 12:37 33.856439 -117.106406 263 11664ft 304kts
14-Nov-17 12:38 33.845100 -117.206775 263 10554ft 291kts
14-Nov-17 12:39 33.835162 -117.295101 264 9578ft 256kts
14-Nov-17 12:40 33.825535 -117.381500 262 8648ft 253kts
14-Nov-17 12:41 33.813420 -117.463915 250 7731ft 253kts
14-Nov-17 12:42 33.799310 -117.543356 281 6925ft 244kts
14-Nov-17 12:43 33.787887 -117.622410 285 6984ft 245kts
14-Nov-17 12:44 33.812009 -117.699986 291 6120ft 253kts
14-Nov-17 12:45 33.837863 -117.778391 291 4520ft 243kts
14-Nov-17 12:46 33.866510 -117.839665 338 3963ft 190kts
14-Nov-17 12:47 33.901248 -117.805836 89 4005ft 195kts
14-Nov-17 12:48 33.898713 -117.741196 108 3964ft 194kts
14-Nov-17 12:49 33.854985 -117.730169 220 4013ft 194kts
14-Nov-17 12:50 33.814577 -117.773326 221 3076ft 190kts
14-Nov-17 12:51 33.775860 -117.804721 209 2131ft 148kts
14-Nov-17 12:52 33.739698 -117.828205 207 1366ft 148kts
14-Nov-17 12:53 33.703769 -117.850961 207 596ft 146kts
14-Nov-17 12:54 33.673441 -117.870276 207 53ft 26kts
14-Nov-17 12:55 33.669219 -117.871713 128 53ft 0kts
14-Nov-17 12:56 33.669618 -117.870452 39 53ft 19kts
14-Nov-17 12:57 33.673829 -117.866683 26 53ft 17kts

Navigation Log

Ident Type
Flight plan parsing failed, navigation log unavailable